createdAt,value
2022-08-27T00:03:08.355Z,1005.639
2022-08-27T00:23:07.054Z,1005.652
2022-08-27T00:43:07.869Z,1005.508
2022-08-27T01:03:08.568Z,1005.521
2022-08-27T01:23:07.588Z,1005.692
2022-08-27T01:43:07.541Z,1005.751
2022-08-27T02:03:08.406Z,1005.787
2022-08-27T02:23:07.206Z,1005.804
2022-08-27T02:43:08.155Z,1005.868
2022-08-27T03:03:08.983Z,1005.825
2022-08-27T03:23:07.790Z,1005.889
2022-08-27T03:43:07.555Z,1005.952
2022-08-27T04:03:08.715Z,1005.935
2022-08-27T04:23:07.566Z,1005.963
2022-08-27T04:43:07.719Z,1006.091
2022-08-27T05:03:08.704Z,1006.203
2022-08-27T05:23:07.533Z,1006.23
2022-08-27T05:43:07.576Z,1006.207
2022-08-27T06:03:08.383Z,1006.31
2022-08-27T06:23:07.266Z,1006.369
2022-08-27T06:43:07.171Z,1006.351
2022-08-27T07:03:09.083Z,1006.552
2022-08-27T07:23:11.704Z,1006.539
2022-08-27T07:43:07.632Z,1006.676
2022-08-27T08:03:08.557Z,1006.848
2022-08-27T08:23:11.191Z,1006.974
2022-08-27T08:43:08.045Z,1007.055
2022-08-27T09:03:08.949Z,1007.158
2022-08-27T09:23:07.700Z,1007.209
2022-08-27T09:43:07.639Z,1007.207
2022-08-27T10:03:08.532Z,1007.309
2022-08-27T10:23:07.279Z,1007.381
2022-08-27T10:43:07.234Z,1007.429
2022-08-27T11:03:09.354Z,1007.479
2022-08-27T11:23:07.742Z,1007.417
2022-08-27T11:43:07.795Z,1007.379
2022-08-27T12:03:08.714Z,1007.412
2022-08-27T12:23:07.564Z,1007.619
2022-08-27T12:43:07.738Z,1007.582
2022-08-27T13:03:08.743Z,1007.586
2022-08-27T13:23:07.509Z,1007.492
2022-08-27T13:43:09.477Z,1007.362
2022-08-27T14:03:08.586Z,1007.185
2022-08-27T14:23:07.549Z,1007.069
2022-08-27T14:43:07.949Z,1007.153
2022-08-27T15:03:08.901Z,1007.201
2022-08-27T15:23:07.719Z,1007.167
2022-08-27T15:43:07.803Z,1007.097
2022-08-27T16:03:08.872Z,1007.188
2022-08-27T16:23:07.958Z,1007.146
2022-08-27T16:43:08.015Z,1007.224
2022-08-27T17:03:09.018Z,1007.21
2022-08-27T17:23:07.913Z,1007.216
2022-08-27T17:43:08.045Z,1007.369
2022-08-27T18:03:09.036Z,1007.542
2022-08-27T18:23:07.890Z,1007.593
2022-08-27T18:43:07.991Z,1007.694
2022-08-27T19:03:08.921Z,1007.724
2022-08-27T19:23:07.392Z,1007.875
2022-08-27T19:43:07.657Z,1007.897
2022-08-27T20:03:08.820Z,1007.976
2022-08-27T20:23:07.703Z,1008.035
2022-08-27T20:43:07.765Z,1008.046
2022-08-27T21:03:08.705Z,1008.269
2022-08-27T21:23:08.834Z,1008.447
2022-08-27T21:43:07.968Z,1008.593
2022-08-27T22:03:11.463Z,1008.791
2022-08-27T22:23:07.395Z,1008.891
2022-08-27T22:43:08.064Z,1008.869
2022-08-27T23:03:08.893Z,1008.922
2022-08-27T23:23:08.472Z,1008.851
2022-08-27T23:43:07.304Z,1008.695
